Terminal Aerodrome Forecast
Issued by NWS

Home | Current Version | Previous Version | Text Only | Print | Product List | Glossary On
Versions: 1 2 3 4 5 6 7 8 9 10 11 12 13
000
FTUS42 KMLB 202300
TAFFPR
TAF
KFPR 202320Z 2100/2124 14004KT P6SM FEW045 SCT100
     FM210400 18003KT P6SM SCT060 OVC120
     FM211400 19004KT P6SM SCT025 BKN090
     FM211800 15009KT P6SM SCT035 BKN060=

USA.gov is the U.S. government's official web portal to all federal, state and local government web resources and services.